This is the latest recevied weather packets stored in our database for station/object KI4HRG. If no packets are shown the sender has not sent any weather packets the latest 10 day(s).
| Time | Temp. | Humidity | Pressure | Rain* | Wind** | Luminosity | Snow |
|---|---|---|---|---|---|---|---|
| 1777497010 | 27.22° C | 79% | 1010.8 hPa | 0 mm | - | 416 W/m² | - |
| 1777496708 | 26.67° C | 79% | 1010.9 hPa | 0 mm | - | 423 W/m² | - |
| 1777496404 | 26.67° C | 81% | 1011 hPa | 0 mm | - | 394 W/m² | - |
| 1777496101 | 26.11° C | 82% | 1011 hPa | 0 mm | - | 356 W/m² | - |
| 1777495796 | 27.22° C | 79% | 1011.2 hPa | 0 mm | - | 327 W/m² | - |
| 1777495493 | 26.67° C | 81% | 1011.3 hPa | 0 mm | - | 322 W/m² | - |
| 1777495189 | 26.67° C | 81% | 1011.3 hPa | 0 mm | - | 282 W/m² | - |
| 1777494887 | 26.11° C | 81% | 1011.5 hPa | 0 mm | - | 257 W/m² | - |
| 1777494583 | 26.67° C | 82% | 1011.4 hPa | 0 mm | - | 266 W/m² | - |
| 1777494281 | 26.67° C | 81% | 1011.6 hPa | 0 mm | - | 261 W/m² | - |
| 1777493977 | 26.11° C | 81% | 1011.8 hPa | 0 mm | - | 256 W/m² | - |
| 1777493675 | 26.11° C | 81% | 1011.7 hPa | 0 mm | - | 244 W/m² | - |
| 1777493373 | 26.67° C | 81% | 1011.7 hPa | 0 mm | - | 218 W/m² | - |
| 1777493069 | 26.67° C | 81% | 1011.8 hPa | 0 mm | - | 204 W/m² | - |
| 1777492766 | 26.67° C | 80% | 1011.7 hPa | 0 mm | - | 298 W/m² | - |
| 1777492461 | 26.67° C | 81% | 1011.7 hPa | 0 mm | - | 172 W/m² | - |
| 1777492158 | 27.78° C | 77% | 1011.7 hPa | 0 mm | - | 227 W/m² | - |
| 1777491855 | 27.78° C | 78% | 1011.7 hPa | 0 mm | - | 685 W/m² | - |
| 1777491551 | 27.22° C | 78% | 1011.7 hPa | 0 mm | - | 767 W/m² | - |
| 1777491249 | 27.22° C | 81% | 1011.8 hPa | 0 mm | - | 563 W/m² | - |
| 1777490945 | 26.67° C | 80% | 1012.1 hPa | 0 mm | - | 395 W/m² | - |
| 1777490641 | 27.22° C | 79% | 1011.8 hPa | 0 mm | - | 595 W/m² | - |
| 1777490337 | 26.11° C | 82% | 1011.8 hPa | 0 mm | - | 537 W/m² | - |
| 1777490035 | 25.56° C | 84% | 1012 hPa | 0 mm | - | 322 W/m² | - |
| 1777489732 | 25.56° C | 84% | 1012.1 hPa | 0 mm | - | 408 W/m² | - |
* Rain latest hour (hover to see other rain measurements)
** Current wind speed in m/s (hover to see current wind gust speed)